createdAt,value
2018-09-15T00:00:18.741Z,22.60
2018-09-15T00:01:18.760Z,22.56
2018-09-15T00:02:18.788Z,22.61
2018-09-15T00:03:18.812Z,22.64
2018-09-15T00:04:18.836Z,22.52
2018-09-15T00:05:18.859Z,22.51
2018-09-15T00:06:18.883Z,22.63
2018-09-15T00:07:18.912Z,22.59
2018-09-15T00:08:18.933Z,22.54
2018-09-15T00:09:18.958Z,22.59
2018-09-15T00:10:18.980Z,22.54
2018-09-15T00:11:19.004Z,22.60
2018-09-15T00:12:19.029Z,22.57
2018-09-15T00:13:19.052Z,22.57
2018-09-15T00:14:19.075Z,22.60
2018-09-15T00:15:19.101Z,22.60
2018-09-15T00:16:19.119Z,22.56
2018-09-15T00:17:19.146Z,22.48
2018-09-15T00:18:19.172Z,22.56
2018-09-15T00:19:19.194Z,22.54
2018-09-15T00:20:19.218Z,22.61
2018-09-15T00:21:19.243Z,22.64
2018-09-15T00:22:19.269Z,22.64
2018-09-15T00:23:19.292Z,22.54
2018-09-15T00:24:19.313Z,22.59
2018-09-15T00:25:19.338Z,22.61
2018-09-15T00:26:19.361Z,22.67
2018-09-15T00:27:19.386Z,22.52
2018-09-15T00:28:19.410Z,22.49
2018-09-15T00:29:19.431Z,22.59
2018-09-15T00:30:19.456Z,22.49
2018-09-15T00:31:19.479Z,22.56
2018-09-15T00:32:19.503Z,22.59
2018-09-15T00:33:19.530Z,22.57
2018-09-15T00:34:19.551Z,22.51
2018-09-15T00:35:19.575Z,22.44
2018-09-15T00:36:19.599Z,22.52
2018-09-15T00:37:19.621Z,22.63
2018-09-15T00:38:19.644Z,22.56
2018-09-15T00:39:19.671Z,22.52
2018-09-15T00:40:19.692Z,22.48
2018-09-15T00:41:19.716Z,22.54
2018-09-15T00:42:19.737Z,22.49
2018-09-15T00:43:19.760Z,22.59
2018-09-15T00:44:19.786Z,22.52
2018-09-15T00:45:19.810Z,22.45
2018-09-15T00:46:19.833Z,22.52
2018-09-15T00:47:19.856Z,22.51
2018-09-15T00:48:19.880Z,22.54
2018-09-15T00:49:19.902Z,22.52
2018-09-15T00:50:19.927Z,22.52
2018-09-15T00:51:19.951Z,22.51
2018-09-15T00:52:19.975Z,22.57
2018-09-15T00:53:19.999Z,22.56
2018-09-15T00:54:20.022Z,22.54
2018-09-15T00:55:20.048Z,22.59
2018-09-15T00:56:20.073Z,22.56
2018-09-15T00:57:20.094Z,22.56
2018-09-15T00:58:20.115Z,22.57
2018-09-15T00:59:20.142Z,22.52
2018-09-15T01:00:20.164Z,22.57
2018-09-15T01:01:20.187Z,22.54
2018-09-15T01:02:20.212Z,22.57
2018-09-15T01:03:20.234Z,22.48
2018-09-15T01:04:20.258Z,22.46
2018-09-15T01:05:20.281Z,22.56
2018-09-15T01:06:20.304Z,22.54
2018-09-15T01:07:20.331Z,22.48
2018-09-15T01:08:20.352Z,22.49
2018-09-15T01:09:20.375Z,22.44
2018-09-15T01:10:20.399Z,22.48
2018-09-15T01:11:20.424Z,22.44
2018-09-15T01:12:20.447Z,22.45
2018-09-15T01:13:20.472Z,22.48
2018-09-15T01:14:20.618Z,22.42
2018-09-15T01:15:20.520Z,22.45
2018-09-15T01:16:20.542Z,22.45
2018-09-15T01:17:20.566Z,22.44
2018-09-15T01:18:20.592Z,22.42
2018-09-15T01:19:20.613Z,22.42
2018-09-15T01:20:20.639Z,22.48
2018-09-15T01:21:20.657Z,22.41
2018-09-15T01:22:20.684Z,22.45
2018-09-15T01:23:20.708Z,22.46
2018-09-15T01:24:20.731Z,22.42
2018-09-15T01:25:20.754Z,22.45
2018-09-15T01:26:20.779Z,22.48
2018-09-15T01:27:20.801Z,22.48
2018-09-15T01:28:20.828Z,22.48
2018-09-15T01:29:20.849Z,22.42
2018-09-15T01:30:20.872Z,22.48
2018-09-15T01:31:20.895Z,22.45
2018-09-15T01:32:20.920Z,22.45
2018-09-15T01:33:20.943Z,22.48
2018-09-15T01:34:20.969Z,22.49
2018-09-15T01:35:20.995Z,22.46
2018-09-15T01:36:21.014Z,22.42
2018-09-15T01:37:21.038Z,22.46
2018-09-15T01:38:21.062Z,22.42
2018-09-15T01:39:21.087Z,22.45
2018-09-15T01:40:21.109Z,22.44
2018-09-15T01:41:21.132Z,22.49
2018-09-15T01:42:21.157Z,22.38
2018-09-15T01:43:21.180Z,22.51
2018-09-15T01:44:21.203Z,22.45
2018-09-15T01:45:21.226Z,22.44
2018-09-15T01:46:21.257Z,22.42
2018-09-15T01:47:21.275Z,22.46
2018-09-15T01:48:21.298Z,22.45
2018-09-15T01:49:21.326Z,22.42
2018-09-15T01:50:21.345Z,22.45
2018-09-15T01:51:21.373Z,22.44
2018-09-15T01:52:21.391Z,22.45
2018-09-15T01:53:21.420Z,22.42
2018-09-15T01:54:21.444Z,22.44
2018-09-15T01:55:21.466Z,22.49
2018-09-15T01:56:21.495Z,22.45
2018-09-15T01:57:21.564Z,22.48
2018-09-15T01:58:21.535Z,22.39
2018-09-15T01:59:21.558Z,22.46
2018-09-15T02:00:21.585Z,22.46
2018-09-15T02:01:21.606Z,22.45
2018-09-15T02:02:21.629Z,22.46
2018-09-15T02:03:21.654Z,22.42
2018-09-15T02:04:21.677Z,22.45
2018-09-15T02:05:21.700Z,22.42
2018-09-15T02:06:21.724Z,22.42
2018-09-15T02:07:21.748Z,22.42
2018-09-15T02:08:21.772Z,22.42
2018-09-15T02:09:21.795Z,22.44
2018-09-15T02:10:21.819Z,22.41
2018-09-15T02:11:21.841Z,22.48
2018-09-15T02:12:21.866Z,22.39
2018-09-15T02:13:21.889Z,22.45
2018-09-15T02:14:21.916Z,22.44
2018-09-15T02:15:21.937Z,22.45
2018-09-15T02:16:21.961Z,22.36
2018-09-15T02:17:21.986Z,22.39
2018-09-15T02:18:22.012Z,22.44
2018-09-15T02:19:22.032Z,22.36
2018-09-15T02:20:22.055Z,22.42
2018-09-15T02:21:22.077Z,22.33
2018-09-15T02:22:22.101Z,22.44
2018-09-15T02:23:22.126Z,22.39
2018-09-15T02:24:22.150Z,22.36
2018-09-15T02:25:22.175Z,22.42
2018-09-15T02:26:22.196Z,22.44
2018-09-15T02:27:22.220Z,22.36
2018-09-15T02:28:22.245Z,22.38
2018-09-15T02:29:22.270Z,22.39
2018-09-15T02:30:22.293Z,22.45
2018-09-15T02:31:22.318Z,22.45
2018-09-15T02:32:22.338Z,22.36
2018-09-15T02:33:22.364Z,22.38
2018-09-15T02:34:22.385Z,22.42
2018-09-15T02:35:22.410Z,22.42
2018-09-15T02:36:22.433Z,22.36
2018-09-15T02:37:22.456Z,22.44
2018-09-15T02:38:22.481Z,22.41
2018-09-15T02:39:22.503Z,22.42
2018-09-15T02:40:22.528Z,22.38
2018-09-15T02:41:22.550Z,22.41
2018-09-15T02:42:22.574Z,22.41
2018-09-15T02:43:22.599Z,22.33
2018-09-15T02:44:22.629Z,22.36
2018-09-15T02:45:22.645Z,22.44
2018-09-15T02:46:22.669Z,22.30
2018-09-15T02:47:22.692Z,22.33
2018-09-15T02:48:22.716Z,22.42
2018-09-15T02:49:22.741Z,22.31
2018-09-15T02:50:22.770Z,22.30
2018-09-15T02:51:22.787Z,22.36
2018-09-15T02:52:22.813Z,22.36
2018-09-15T02:53:22.836Z,22.31
2018-09-15T02:54:22.856Z,22.33
2018-09-15T02:55:22.881Z,22.41
2018-09-15T02:56:22.909Z,22.41
2018-09-15T02:57:22.928Z,22.36
2018-09-15T02:58:22.952Z,22.33
2018-09-15T02:59:22.979Z,22.44
2018-09-15T03:00:23.000Z,22.35
2018-09-15T03:01:23.022Z,22.33
2018-09-15T03:02:23.045Z,22.33
2018-09-15T03:03:23.069Z,22.36
2018-09-15T03:04:23.094Z,22.39
2018-09-15T03:05:23.117Z,22.30
2018-09-15T03:06:23.141Z,22.29
2018-09-15T03:07:23.171Z,22.38
2018-09-15T03:08:23.187Z,22.36
2018-09-15T03:09:23.211Z,22.30
2018-09-15T03:10:23.236Z,22.35
2018-09-15T03:11:23.262Z,22.33
2018-09-15T03:12:23.282Z,22.31
2018-09-15T03:13:23.305Z,22.36
2018-09-15T03:14:23.328Z,22.30
2018-09-15T03:15:23.353Z,22.36
2018-09-15T03:16:23.380Z,22.35
2018-09-15T03:17:23.399Z,22.30
2018-09-15T03:18:23.424Z,22.29
2018-09-15T03:19:23.446Z,22.36
2018-09-15T03:20:23.472Z,22.30
2018-09-15T03:21:23.495Z,22.36
2018-09-15T03:22:23.518Z,22.35
2018-09-15T03:23:23.541Z,22.36
2018-09-15T03:24:23.564Z,22.30
2018-09-15T03:25:23.591Z,22.35
2018-09-15T03:26:23.611Z,22.38
2018-09-15T03:27:23.635Z,22.31
2018-09-15T03:28:23.660Z,22.33
2018-09-15T03:29:23.681Z,22.23
2018-09-15T03:30:23.704Z,22.23
2018-09-15T03:31:23.729Z,22.41
2018-09-15T03:32:23.755Z,22.20
2018-09-15T03:33:23.775Z,22.30
2018-09-15T03:34:23.804Z,22.30
2018-09-15T03:35:23.826Z,22.33
2018-09-15T03:36:23.847Z,22.33
2018-09-15T03:37:23.873Z,22.24
2018-09-15T03:38:23.894Z,22.41
2018-09-15T03:39:23.919Z,22.24
2018-09-15T03:40:23.941Z,22.36
2018-09-15T03:41:24.019Z,22.33
2018-09-15T03:42:23.998Z,22.38
2018-09-15T03:43:24.013Z,22.24
2018-09-15T03:44:24.036Z,22.30
2018-09-15T03:45:24.061Z,22.19
2018-09-15T03:46:24.084Z,22.29
2018-09-15T03:47:24.105Z,22.27
2018-09-15T03:48:24.132Z,22.35
2018-09-15T03:49:24.154Z,22.21
2018-09-15T03:50:24.178Z,22.35
2018-09-15T03:51:24.201Z,22.31
2018-09-15T03:52:24.223Z,22.31
2018-09-15T03:53:24.247Z,22.24
2018-09-15T03:54:24.272Z,22.27
2018-09-15T03:55:24.299Z,22.31
2018-09-15T03:56:24.318Z,22.23
2018-09-15T03:57:24.340Z,22.24
2018-09-15T03:58:24.365Z,22.35
2018-09-15T03:59:24.388Z,22.31
2018-09-15T04:00:24.414Z,22.24
2018-09-15T04:01:24.435Z,22.35
2018-09-15T04:02:24.459Z,22.26
2018-09-15T04:03:24.494Z,22.27
2018-09-15T04:04:24.505Z,22.31
2018-09-15T04:05:24.528Z,22.21
2018-09-15T04:06:24.553Z,22.33
2018-09-15T04:07:24.575Z,22.23
2018-09-15T04:08:24.601Z,22.26
2018-09-15T04:09:24.624Z,22.24
2018-09-15T04:10:24.654Z,22.29
2018-09-15T04:11:24.670Z,22.24
2018-09-15T04:12:24.709Z,22.21
2018-09-15T04:13:24.719Z,22.24
2018-09-15T04:14:24.744Z,22.21
2018-09-15T04:15:24.767Z,22.27
2018-09-15T04:16:24.787Z,22.24
2018-09-15T04:17:24.813Z,22.29
2018-09-15T04:18:24.834Z,22.29
2018-09-15T04:19:24.859Z,22.23
2018-09-15T04:20:24.882Z,22.23
2018-09-15T04:21:24.905Z,22.21
2018-09-15T04:22:24.930Z,22.20
2018-09-15T04:23:24.952Z,22.20
2018-09-15T04:24:24.982Z,22.19
2018-09-15T04:25:24.999Z,22.26
2018-09-15T04:26:25.022Z,22.24
2018-09-15T04:27:25.051Z,22.24
2018-09-15T04:28:25.106Z,22.24
2018-09-15T04:29:25.095Z,22.29
2018-09-15T04:30:25.116Z,22.21
2018-09-15T04:31:25.142Z,22.19
2018-09-15T04:32:25.163Z,22.20
2018-09-15T04:33:25.186Z,22.21
2018-09-15T04:34:25.212Z,22.23
2018-09-15T04:35:25.235Z,22.23
2018-09-15T04:36:25.259Z,22.23
2018-09-15T04:37:25.281Z,22.24
2018-09-15T04:38:25.305Z,22.24
2018-09-15T04:39:25.328Z,22.27
2018-09-15T04:40:25.354Z,22.24
2018-09-15T04:41:25.380Z,22.29
2018-09-15T04:42:25.399Z,22.29
2018-09-15T04:43:25.422Z,22.26
2018-09-15T04:44:25.445Z,22.27
2018-09-15T04:45:25.470Z,22.23
2018-09-15T04:46:25.495Z,22.38
2018-09-15T04:47:25.517Z,22.27
2018-09-15T04:48:25.541Z,22.24
2018-09-15T04:49:25.567Z,22.35
2018-09-15T04:50:25.586Z,22.27
2018-09-15T04:51:25.611Z,22.33
2018-09-15T04:52:25.634Z,22.35
2018-09-15T04:53:25.657Z,22.31
2018-09-15T04:54:25.684Z,22.36
2018-09-15T04:55:25.703Z,22.30
2018-09-15T04:56:25.730Z,22.35
2018-09-15T04:57:25.754Z,22.33
2018-09-15T04:58:25.776Z,22.35
2018-09-15T04:59:25.799Z,22.33
2018-09-15T05:00:25.823Z,22.35
2018-09-15T05:01:25.844Z,22.33
2018-09-15T05:02:25.868Z,22.38
2018-09-15T05:03:25.893Z,22.30
2018-09-15T05:04:25.917Z,22.31
2018-09-15T05:05:25.939Z,22.31
2018-09-15T05:06:25.975Z,22.38
2018-09-15T05:07:25.986Z,22.31
2018-09-15T05:08:26.010Z,22.39
2018-09-15T05:09:26.034Z,22.39
2018-09-15T05:10:26.057Z,22.42
2018-09-15T05:11:26.082Z,22.52
2018-09-15T05:12:26.160Z,22.54
2018-09-15T05:13:26.127Z,22.61
2018-09-15T05:14:26.150Z,22.57
2018-09-15T05:15:26.174Z,22.57
2018-09-15T05:16:26.200Z,22.60
2018-09-15T05:17:26.223Z,22.63
2018-09-15T05:18:26.245Z,22.61
2018-09-15T05:19:26.284Z,22.64
2018-09-15T05:20:26.295Z,22.61
2018-09-15T05:21:26.313Z,22.63
2018-09-15T05:22:26.339Z,22.63
2018-09-15T05:23:26.367Z,22.57
2018-09-15T05:24:26.387Z,22.60
2018-09-15T05:25:26.410Z,22.54
2018-09-15T05:26:26.434Z,22.54
2018-09-15T05:27:26.457Z,22.49
2018-09-15T05:28:26.484Z,22.49
2018-09-15T05:29:26.504Z,22.48
2018-09-15T05:30:26.529Z,22.57
2018-09-15T05:31:26.567Z,22.49
2018-09-15T05:32:26.577Z,22.54
2018-09-15T05:33:26.603Z,22.56
2018-09-15T05:34:26.623Z,22.56
2018-09-15T05:35:26.646Z,22.49
2018-09-15T05:36:26.673Z,22.51
2018-09-15T05:37:26.694Z,22.54
2018-09-15T05:38:26.718Z,22.56
2018-09-15T05:39:26.743Z,22.61
2018-09-15T05:40:26.765Z,22.61
2018-09-15T05:41:26.788Z,22.59
2018-09-15T05:42:26.813Z,22.57
2018-09-15T05:43:26.835Z,22.60
2018-09-15T05:44:26.859Z,22.51
2018-09-15T05:45:26.884Z,22.48
2018-09-15T05:46:26.907Z,22.49
2018-09-15T05:47:26.932Z,22.59
2018-09-15T05:48:26.955Z,22.56
2018-09-15T05:49:26.977Z,22.56
2018-09-15T05:50:27.001Z,22.57
2018-09-15T05:51:27.024Z,22.52
2018-09-15T05:52:27.041Z,22.49
2018-09-15T05:53:27.078Z,22.57
2018-09-15T05:54:27.097Z,22.60
2018-09-15T05:55:27.119Z,22.60
2018-09-15T05:56:27.157Z,22.57
2018-09-15T05:57:27.172Z,22.57
2018-09-15T05:58:27.190Z,22.59
2018-09-15T05:59:27.217Z,22.63
2018-09-15T06:00:27.294Z,22.59
2018-09-15T06:01:27.284Z,22.59
2018-09-15T06:02:27.284Z,22.61
2018-09-15T06:03:27.308Z,22.66
2018-09-15T06:04:27.334Z,22.61
2018-09-15T06:05:27.356Z,22.61
2018-09-15T06:06:27.380Z,22.61
2018-09-15T06:07:27.403Z,22.57
2018-09-15T06:08:27.427Z,22.66
2018-09-15T06:09:27.449Z,22.59
2018-09-15T06:10:27.475Z,22.61
2018-09-15T06:11:27.501Z,22.66
2018-09-15T06:12:27.525Z,22.63
2018-09-15T06:13:27.544Z,22.69
2018-09-15T06:14:27.568Z,22.72
2018-09-15T06:15:27.592Z,22.66
2018-09-15T06:16:27.616Z,22.70
2018-09-15T06:17:27.641Z,22.70
2018-09-15T06:18:27.665Z,22.72
2018-09-15T06:19:27.687Z,22.70
2018-09-15T06:20:27.712Z,22.82
2018-09-15T06:21:27.737Z,22.78
2018-09-15T06:22:27.761Z,22.81
2018-09-15T06:23:27.785Z,22.94
2018-09-15T06:24:27.808Z,23.00
2018-09-15T06:25:27.833Z,22.99
2018-09-15T06:26:27.855Z,23.00
2018-09-15T06:27:27.878Z,23.06
2018-09-15T06:28:27.902Z,23.11
2018-09-15T06:29:27.925Z,23.18
2018-09-15T06:30:27.949Z,23.18
2018-09-15T06:31:27.973Z,23.29
2018-09-15T06:32:27.997Z,23.29
2018-09-15T06:33:28.021Z,23.42
2018-09-15T06:34:28.045Z,23.45
2018-09-15T06:35:28.069Z,23.56
2018-09-15T06:36:28.096Z,23.60
2018-09-15T06:37:28.117Z,23.56
2018-09-15T06:38:28.140Z,23.56
2018-09-15T06:39:28.190Z,23.62
2018-09-15T06:40:28.191Z,23.54
2018-09-15T06:41:28.212Z,23.68
2018-09-15T06:42:28.236Z,23.64
2018-09-15T06:43:28.261Z,23.67
2018-09-15T06:44:28.285Z,23.72
2018-09-15T06:45:28.386Z,23.75
2018-09-15T06:46:28.335Z,24.00
2018-09-15T06:47:28.358Z,24.16
2018-09-15T06:48:28.383Z,24.16
2018-09-15T06:49:28.406Z,24.41
2018-09-15T06:50:28.430Z,24.37
2018-09-15T06:51:28.483Z,24.29
2018-09-15T06:52:28.480Z,24.23
2018-09-15T06:53:28.502Z,24.16
2018-09-15T06:54:28.530Z,24.15
2018-09-15T06:55:28.551Z,24.18
2018-09-15T06:56:28.576Z,24.11
2018-09-15T06:57:28.602Z,24.02
2018-09-15T06:58:28.670Z,23.92
2018-09-15T06:59:28.649Z,24.06
2018-09-15T07:00:28.673Z,23.97
2018-09-15T07:01:28.697Z,24.29
2018-09-15T07:02:28.721Z,24.37
2018-09-15T07:03:28.748Z,24.33
2018-09-15T07:04:28.771Z,24.26
2018-09-15T07:05:28.795Z,24.16
2018-09-15T07:06:28.820Z,24.09
2018-09-15T07:07:28.844Z,24.06
2018-09-15T07:08:28.869Z,24.04
2018-09-15T07:09:28.893Z,23.97
2018-09-15T07:10:28.916Z,23.96
2018-09-15T07:11:28.941Z,23.93
2018-09-15T07:12:28.981Z,23.96
2018-09-15T07:13:29.006Z,23.90
2018-09-15T07:14:29.018Z,23.82
2018-09-15T07:15:29.039Z,23.90
2018-09-15T07:16:29.066Z,23.81
2018-09-15T07:17:29.093Z,23.89
2018-09-15T07:18:29.112Z,23.78
2018-09-15T07:19:29.136Z,23.71
2018-09-15T07:20:29.161Z,23.81
2018-09-15T07:21:29.187Z,23.86
2018-09-15T07:22:29.202Z,23.82
2018-09-15T07:23:29.234Z,23.81
2018-09-15T07:24:29.260Z,23.86
2018-09-15T07:25:29.284Z,23.87
2018-09-15T07:26:29.308Z,23.86
2018-09-15T07:27:29.332Z,23.86
2018-09-15T07:28:29.360Z,23.78
2018-09-15T07:29:29.381Z,23.81
2018-09-15T07:30:29.406Z,23.93
2018-09-15T07:31:29.465Z,23.92
2018-09-15T07:32:29.456Z,23.96
2018-09-15T07:33:29.479Z,23.93
2018-09-15T07:34:29.503Z,23.86
2018-09-15T07:35:29.529Z,23.96
2018-09-15T07:36:29.553Z,23.81
2018-09-15T07:37:29.584Z,23.86
2018-09-15T07:38:29.603Z,23.82
2018-09-15T07:39:29.626Z,23.86
2018-09-15T07:40:29.653Z,23.86
2018-09-15T07:41:29.675Z,23.87
2018-09-15T07:42:29.700Z,23.78
2018-09-15T07:43:29.727Z,23.84
2018-09-15T07:44:29.749Z,23.84
2018-09-15T07:45:29.773Z,23.79
2018-09-15T07:46:29.800Z,23.87
2018-09-15T07:47:29.824Z,23.84
2018-09-15T07:48:29.851Z,23.82
2018-09-15T07:49:29.871Z,23.77
2018-09-15T07:50:29.898Z,23.68
2018-09-15T07:51:29.962Z,23.75
2018-09-15T07:52:29.947Z,23.71
2018-09-15T07:53:29.970Z,23.79
2018-09-15T07:54:29.999Z,23.72
2018-09-15T07:55:30.017Z,23.74
2018-09-15T07:56:30.051Z,23.77
2018-09-15T07:57:30.131Z,23.77
2018-09-15T07:58:30.094Z,23.75
2018-09-15T07:59:30.120Z,23.75
2018-09-15T08:00:30.142Z,23.75
2018-09-15T08:01:30.166Z,23.77
2018-09-15T08:02:30.195Z,23.77
2018-09-15T08:03:30.214Z,23.72
2018-09-15T08:04:30.242Z,23.72
2018-09-15T08:05:30.264Z,23.69
2018-09-15T08:06:30.288Z,23.68
2018-09-15T08:07:30.312Z,23.72
2018-09-15T08:08:30.338Z,23.64
2018-09-15T08:09:30.361Z,23.67
2018-09-15T08:10:30.386Z,23.71
2018-09-15T08:11:30.413Z,23.78
2018-09-15T08:12:30.446Z,23.71
2018-09-15T08:13:30.460Z,23.71
2018-09-15T08:14:30.485Z,23.77
2018-09-15T08:15:30.508Z,23.77
2018-09-15T08:16:30.539Z,23.71
2018-09-15T08:17:30.557Z,23.75
2018-09-15T08:18:30.583Z,23.75
2018-09-15T08:19:30.608Z,23.78
2018-09-15T08:20:30.633Z,23.79
2018-09-15T08:21:30.655Z,23.81
2018-09-15T08:22:30.688Z,23.82
2018-09-15T08:23:30.705Z,23.87
2018-09-15T08:24:30.730Z,23.90
2018-09-15T08:25:30.754Z,23.81
2018-09-15T08:26:30.819Z,23.84
2018-09-15T08:27:30.816Z,23.81
2018-09-15T08:28:30.828Z,23.84
2018-09-15T08:29:30.852Z,23.86
2018-09-15T08:30:30.876Z,23.81
2018-09-15T08:31:30.901Z,23.82
2018-09-15T08:32:30.925Z,23.86
2018-09-15T08:33:30.949Z,23.94
2018-09-15T08:34:30.978Z,23.94
2018-09-15T08:35:30.999Z,24.00
2018-09-15T08:36:31.027Z,23.96
2018-09-15T08:37:31.072Z,24.06
2018-09-15T08:38:31.073Z,24.06
2018-09-15T08:39:31.097Z,24.05
2018-09-15T08:40:31.124Z,23.99
2018-09-15T08:41:31.147Z,24.05
2018-09-15T08:42:31.172Z,24.09
2018-09-15T08:43:31.197Z,24.11
2018-09-15T08:44:31.221Z,24.16
2018-09-15T08:45:31.248Z,24.18
2018-09-15T08:46:31.271Z,24.15
2018-09-15T08:47:31.294Z,24.23
2018-09-15T08:48:31.322Z,24.29
2018-09-15T08:49:31.346Z,24.27
2018-09-15T08:50:31.369Z,24.27
2018-09-15T08:51:31.393Z,24.27
2018-09-15T08:52:31.418Z,24.24
2018-09-15T08:53:31.442Z,24.18
2018-09-15T08:54:31.467Z,24.16
2018-09-15T08:55:31.494Z,24.18
2018-09-15T08:56:31.521Z,24.16
2018-09-15T08:57:31.541Z,24.09
2018-09-15T08:58:31.566Z,24.16
2018-09-15T08:59:31.591Z,24.09
2018-09-15T09:00:31.615Z,24.14
2018-09-15T09:01:31.640Z,24.11
2018-09-15T09:02:31.666Z,24.08
2018-09-15T09:03:31.719Z,24.02
2018-09-15T09:04:31.715Z,24.06
2018-09-15T09:05:31.741Z,24.11
2018-09-15T09:06:31.764Z,24.06
2018-09-15T09:07:31.794Z,24.09
2018-09-15T09:08:31.819Z,24.11
2018-09-15T09:09:31.838Z,24.04
2018-09-15T09:10:31.861Z,24.15
2018-09-15T09:11:31.888Z,24.09
2018-09-15T09:12:31.912Z,24.08
2018-09-15T09:13:31.937Z,24.16
2018-09-15T09:14:31.964Z,24.18
2018-09-15T09:15:31.986Z,24.18
2018-09-15T09:16:32.012Z,24.19
2018-09-15T09:17:32.035Z,24.18
2018-09-15T09:18:32.064Z,24.23
2018-09-15T09:19:32.089Z,24.27
2018-09-15T09:20:32.110Z,24.23
2018-09-15T09:21:32.139Z,24.21
2018-09-15T09:22:32.162Z,24.27
2018-09-15T09:23:32.187Z,24.24
2018-09-15T09:24:32.210Z,24.21
2018-09-15T09:25:32.235Z,24.29
2018-09-15T09:26:32.353Z,24.31
2018-09-15T09:27:32.284Z,24.30
2018-09-15T09:28:32.310Z,24.34
2018-09-15T09:29:32.334Z,24.33
2018-09-15T09:30:32.356Z,24.36
2018-09-15T09:31:32.386Z,24.37
2018-09-15T09:32:32.409Z,24.41
2018-09-15T09:33:32.432Z,24.37
2018-09-15T09:34:32.451Z,24.41
2018-09-15T09:35:32.489Z,24.42
2018-09-15T09:36:32.546Z,24.41
2018-09-15T09:37:32.535Z,24.46
2018-09-15T09:38:32.559Z,24.39
2018-09-15T09:39:32.584Z,24.39
2018-09-15T09:40:32.611Z,24.44
2018-09-15T09:41:32.704Z,24.42
2018-09-15T09:42:32.657Z,24.39
2018-09-15T09:43:32.700Z,24.41
2018-09-15T09:44:32.707Z,24.42
2018-09-15T09:45:32.735Z,24.45
2018-09-15T09:46:32.758Z,24.45
2018-09-15T09:47:32.782Z,24.44
2018-09-15T09:48:32.807Z,24.44
2018-09-15T09:49:32.832Z,24.41
2018-09-15T09:50:32.858Z,24.44
2018-09-15T09:51:32.882Z,24.49
2018-09-15T09:52:32.913Z,24.45
2018-09-15T09:53:32.931Z,24.42
2018-09-15T09:54:32.955Z,24.59
2018-09-15T09:55:32.981Z,24.52
2018-09-15T09:56:33.010Z,24.59
2018-09-15T09:57:33.030Z,24.59
2018-09-15T09:58:33.058Z,24.52
2018-09-15T09:59:33.084Z,24.60
2018-09-15T10:00:33.107Z,24.56
2018-09-15T10:01:33.131Z,24.59
2018-09-15T10:02:33.156Z,24.60
2018-09-15T10:03:33.191Z,24.60
2018-09-15T10:04:33.207Z,24.56
2018-09-15T10:05:33.231Z,24.56
2018-09-15T10:06:33.256Z,24.53
2018-09-15T10:07:33.281Z,24.59
2018-09-15T10:08:33.306Z,24.53
2018-09-15T10:09:33.332Z,24.56
2018-09-15T10:10:33.361Z,24.59
2018-09-15T10:11:33.383Z,24.52
2018-09-15T10:12:33.406Z,24.60
2018-09-15T10:13:33.432Z,24.56
2018-09-15T10:14:33.457Z,24.60
2018-09-15T10:15:33.481Z,24.59
2018-09-15T10:16:33.508Z,24.74
2018-09-15T10:17:33.534Z,24.74
2018-09-15T10:18:33.557Z,24.70
2018-09-15T10:19:33.585Z,24.71
2018-09-15T10:20:33.607Z,24.74
2018-09-15T10:21:33.642Z,24.68
2018-09-15T10:22:33.659Z,24.80
2018-09-15T10:23:33.684Z,24.75
2018-09-15T10:24:33.707Z,24.77
2018-09-15T10:25:33.732Z,24.82
2018-09-15T10:26:33.755Z,24.82
2018-09-15T10:27:33.782Z,24.84
2018-09-15T10:28:33.813Z,24.80
2018-09-15T10:29:33.834Z,24.86
2018-09-15T10:30:33.857Z,24.77
2018-09-15T10:31:33.888Z,24.89
2018-09-15T10:32:33.909Z,24.82
2018-09-15T10:33:33.932Z,24.84
2018-09-15T10:34:33.958Z,24.86
2018-09-15T10:35:33.983Z,24.82
2018-09-15T10:36:34.011Z,24.83
2018-09-15T10:37:34.038Z,24.92
2018-09-15T10:38:34.121Z,24.93
2018-09-15T10:39:34.089Z,24.87
2018-09-15T10:40:34.167Z,24.94
2018-09-15T10:41:34.136Z,24.93
2018-09-15T10:42:34.162Z,24.92
2018-09-15T10:43:34.184Z,24.97
2018-09-15T10:44:34.210Z,24.99
2018-09-15T10:45:34.235Z,24.94
2018-09-15T10:46:34.328Z,25.05
2018-09-15T10:47:34.286Z,24.99
2018-09-15T10:48:34.312Z,25.07
2018-09-15T10:49:34.346Z,25.04
2018-09-15T10:50:34.364Z,25.04
2018-09-15T10:51:34.387Z,25.04
2018-09-15T10:52:34.415Z,25.05
2018-09-15T10:53:34.437Z,25.07
2018-09-15T10:54:34.462Z,25.02
2018-09-15T10:55:34.488Z,24.99
2018-09-15T10:56:34.512Z,24.98
2018-09-15T10:57:34.537Z,25.01
2018-09-15T10:58:34.563Z,24.98
2018-09-15T10:59:34.590Z,25.02
2018-09-15T11:00:34.624Z,25.01
2018-09-15T11:01:34.641Z,24.94
2018-09-15T11:02:34.667Z,24.97
2018-09-15T11:03:34.690Z,24.94
2018-09-15T11:04:34.715Z,24.99
2018-09-15T11:05:34.740Z,24.87
2018-09-15T11:06:34.771Z,24.92
2018-09-15T11:07:34.791Z,24.86
2018-09-15T11:08:34.821Z,24.87
2018-09-15T11:09:34.841Z,24.89
2018-09-15T11:10:34.867Z,24.90
2018-09-15T11:11:34.892Z,24.83
2018-09-15T11:12:34.918Z,24.82
2018-09-15T11:13:34.983Z,24.83
2018-09-15T11:14:34.967Z,24.89
2018-09-15T11:15:34.996Z,24.80
2018-09-15T11:16:35.021Z,24.74
2018-09-15T11:17:35.044Z,24.74
2018-09-15T11:18:35.070Z,24.71
2018-09-15T11:19:35.097Z,24.74
2018-09-15T11:20:35.119Z,24.70
2018-09-15T11:21:35.150Z,24.68
2018-09-15T11:22:35.199Z,24.67
2018-09-15T11:23:35.195Z,24.70
2018-09-15T11:24:35.220Z,24.74
2018-09-15T11:25:35.245Z,24.71
2018-09-15T11:26:35.271Z,24.68
2018-09-15T11:27:35.305Z,24.75
2018-09-15T11:28:35.344Z,24.64
2018-09-15T11:29:35.347Z,24.67
2018-09-15T11:30:35.377Z,24.66
2018-09-15T11:31:35.397Z,24.74
2018-09-15T11:32:35.423Z,24.70
2018-09-15T11:33:35.448Z,24.70
2018-09-15T11:34:35.481Z,24.64
2018-09-15T11:35:35.498Z,24.68
2018-09-15T11:36:35.524Z,24.75
2018-09-15T11:37:35.551Z,24.70
2018-09-15T11:38:35.573Z,24.86
2018-09-15T11:39:35.605Z,24.83
2018-09-15T11:40:35.624Z,24.87
2018-09-15T11:41:35.653Z,24.74
2018-09-15T11:42:35.675Z,24.86
2018-09-15T11:43:35.752Z,24.82
2018-09-15T11:44:35.725Z,24.77
2018-09-15T11:45:35.751Z,24.86
2018-09-15T11:46:35.781Z,24.75
2018-09-15T11:47:35.803Z,24.75
2018-09-15T11:48:35.827Z,24.68
2018-09-15T11:49:35.851Z,24.74
2018-09-15T11:50:35.877Z,24.67
2018-09-15T11:51:35.905Z,24.71
2018-09-15T11:52:35.933Z,24.68
2018-09-15T11:53:35.951Z,24.64
2018-09-15T11:54:35.977Z,24.68
2018-09-15T11:55:36.006Z,24.71
2018-09-15T11:56:36.029Z,24.79
2018-09-15T11:57:36.059Z,24.82
2018-09-15T11:58:36.078Z,24.71
2018-09-15T11:59:36.103Z,24.75
2018-09-15T12:00:36.129Z,24.67
2018-09-15T12:01:36.154Z,24.74
2018-09-15T12:02:36.181Z,24.71
2018-09-15T12:03:36.205Z,24.83
2018-09-15T12:04:36.238Z,24.75
2018-09-15T12:05:36.257Z,24.79
2018-09-15T12:06:36.282Z,24.74
2018-09-15T12:07:36.305Z,24.79
2018-09-15T12:08:36.331Z,24.75
2018-09-15T12:09:36.356Z,24.87
2018-09-15T12:10:36.381Z,24.83
2018-09-15T12:11:36.412Z,24.82
2018-09-15T12:12:36.434Z,24.83
2018-09-15T12:13:36.456Z,24.82
2018-09-15T12:14:36.486Z,24.87
2018-09-15T12:15:36.508Z,24.84
2018-09-15T12:16:36.526Z,24.87
2018-09-15T12:17:36.562Z,24.83
2018-09-15T12:18:36.584Z,24.86
2018-09-15T12:19:36.618Z,24.80
2018-09-15T12:20:36.634Z,24.86
2018-09-15T12:21:36.716Z,24.87
2018-09-15T12:22:36.689Z,24.75
2018-09-15T12:23:36.712Z,24.68
2018-09-15T12:24:36.736Z,24.67
2018-09-15T12:25:36.761Z,24.70
2018-09-15T12:26:36.787Z,24.66
2018-09-15T12:27:36.813Z,24.74
2018-09-15T12:28:36.839Z,24.60
2018-09-15T12:29:36.862Z,24.52
2018-09-15T12:30:36.886Z,24.56
2018-09-15T12:31:36.913Z,24.61
2018-09-15T12:32:36.937Z,24.59
2018-09-15T12:33:37.096Z,24.45
2018-09-15T12:34:36.987Z,24.45
2018-09-15T12:35:37.014Z,24.45
2018-09-15T12:36:37.038Z,24.41
2018-09-15T12:37:37.065Z,24.45
2018-09-15T12:38:37.092Z,24.33
2018-09-15T12:39:37.117Z,24.33
2018-09-15T12:40:37.139Z,24.29
2018-09-15T12:41:37.164Z,24.24
2018-09-15T12:42:37.213Z,24.29
2018-09-15T12:43:37.217Z,24.23
2018-09-15T12:44:37.239Z,24.19
2018-09-15T12:45:37.264Z,24.21
2018-09-15T12:46:37.287Z,24.27
2018-09-15T12:47:37.314Z,24.24
2018-09-15T12:48:37.338Z,24.18
2018-09-15T12:49:37.364Z,24.27
2018-09-15T12:50:37.392Z,24.15
2018-09-15T12:51:37.420Z,24.16
2018-09-15T12:52:37.440Z,24.24